Time;durP1;ratioP1;P1;durP2;ratioP2;P2;SDS_P1;SDS_P2;PMS_P1;PMS_P2;Temp;Humidity;BMP_temperature;BMP_pressure;BME280_temperature;BME280_humidity;BME280_pressure;Samples;Min_cycle;Max_cycle;Signal;HPM_P1;HPM_P2
2021/06/16 00:00:21;;;;;;;9.45;5.72;;;;;;;16.98;77.87;100635.60;1780539;80;21050;-59
2021/06/16 00:02:49;;;;;;;7.75;5.12;;;;;;;16.84;78.08;100631.72;1780448;80;21034;-59
2021/06/16 00:05:21;;;;;;;9.55;5.78;;;;;;;16.75;78.27;100627.82;1780486;80;21065;-59
2021/06/16 00:07:50;;;;;;;8.85;5.85;;;;;;;16.71;78.32;100624.13;1780349;80;21061;-59
2021/06/16 00:10:22;;;;;;;6.75;5.30;;;;;;;16.66;78.43;100623.60;1780472;80;21134;-59
2021/06/16 00:12:50;;;;;;;11.57;6.25;;;;;;;16.63;78.58;100643.25;1780471;80;21397;-59
2021/06/16 00:15:22;;;;;;;9.38;5.87;;;;;;;16.62;78.97;100646.87;1780440;80;21195;-60
2021/06/16 00:17:51;;;;;;;11.57;6.20;;;;;;;16.60;78.95;100641.66;1780453;80;21150;-59
2021/06/16 00:20:20;;;;;;;10.43;5.90;;;;;;;16.62;78.80;100640.69;1780342;80;21089;-59
2021/06/16 00:22:49;;;;;;;10.10;6.28;;;;;;;16.63;78.91;100656.53;1797723;79;21539;-59
2021/06/16 00:25:17;;;;;;;15.98;6.92;;;;;;;16.63;78.96;100671.16;1808979;79;21065;-58
2021/06/16 00:27:46;;;;;;;12.07;6.55;;;;;;;16.64;78.90;100676.86;1809023;79;21060;-58
2021/06/16 00:30:16;;;;;;;14.13;7.12;;;;;;;16.66;78.83;100676.28;1809050;79;21037;-58
2021/06/16 00:32:45;;;;;;;10.13;7.15;;;;;;;16.70;78.71;100670.30;1808786;79;21060;-59
2021/06/16 00:35:18;;;;;;;12.82;6.55;;;;;;;16.71;78.58;100675.52;1808942;79;21130;-58
2021/06/16 00:37:45;;;;;;;10.85;6.03;;;;;;;16.76;78.49;100697.31;1808656;79;21069;-60
2021/06/16 00:40:16;;;;;;;12.50;5.72;;;;;;;16.77;78.47;100732.27;1808896;79;21487;-60
2021/06/16 00:42:45;;;;;;;11.18;6.30;;;;;;;16.76;78.73;100761.12;1808831;79;21147;-60
2021/06/16 00:45:14;;;;;;;15.23;6.83;;;;;;;16.76;78.91;100776.23;1808767;79;21154;-59
2021/06/16 00:47:44;;;;;;;10.25;6.05;;;;;;;16.74;78.99;100780.31;1808954;79;21068;-59
2021/06/16 00:50:13;;;;;;;12.25;5.95;;;;;;;16.73;79.06;100778.63;1808984;79;21065;-60
2021/06/16 00:52:42;;;;;;;8.38;5.87;;;;;;;16.72;79.09;100779.56;1808993;78;21060;-59
2021/06/16 00:55:12;;;;;;;12.60;7.28;;;;;;;16.72;79.07;100777.39;1809000;79;21115;-60
2021/06/16 00:57:41;;;;;;;14.87;7.03;;;;;;;16.70;79.10;100777.48;1808816;79;21127;-60
2021/06/16 01:00:18;;;;;;;17.23;7.58;;;;;;;16.70;79.51;100778.81;1808853;79;21515;-59
2021/06/16 01:02:58;;;;;;;20.17;8.73;;;;;;;16.70;79.67;100781.95;1808907;79;21065;-59
2021/06/16 01:05:36;;;;;;;18.67;9.58;;;;;;;16.69;79.83;100772.25;1808854;79;21159;-59
2021/06/16 01:08:06;;;;;;;16.25;8.98;;;;;;;16.68;79.98;100774.07;1807901;79;21585;-61
2021/06/16 01:10:38;;;;;;;19.50;9.08;;;;;;;16.67;80.27;100750.23;1808907;79;21064;-59
2021/06/16 01:13:15;;;;;;;15.65;7.85;;;;;;;16.64;80.42;100734.50;1808950;79;21036;-59
2021/06/16 01:15:59;;;;;;;14.78;8.85;;;;;;;16.62;80.67;100736.38;1808482;79;21607;-59
2021/06/16 01:18:28;;;;;;;;;;;;;;;16.58;80.82;100741.91;1811316;79;21092;-59
2021/06/16 01:20:58;;;;;;;19.55;10.53;;;;;;;16.52;80.75;100741.45;1808981;79;20244;-59
2021/06/16 01:23:49;;;;;;;15.60;8.63;;;;;;;16.50;80.70;100756.64;1792145;79;21118;-59
2021/06/16 01:26:24;;;;;;;18.17;9.00;;;;;;;16.50;81.05;100760.14;1780224;80;21078;-59
2021/06/16 01:28:58;;;;;;;16.93;8.70;;;;;;;16.50;81.00;100756.16;1780491;80;21614;-59
2021/06/16 01:31:28;;;;;;;20.65;9.85;;;;;;;16.52;81.03;100760.89;1780645;79;21159;-59
2021/06/16 01:33:56;;;;;;;17.95;10.53;;;;;;;16.53;81.10;100752.47;1780499;80;21461;-59
2021/06/16 01:36:27;;;;;;;18.77;9.43;;;;;;;16.54;81.28;100759.02;1780508;80;21155;-59
2021/06/16 01:38:56;;;;;;;17.82;10.60;;;;;;;16.52;81.53;100758.72;1780537;80;21120;-59
2021/06/16 01:41:25;;;;;;;22.30;11.63;;;;;;;16.51;81.64;100762.34;1780417;80;21034;-59
2021/06/16 01:43:56;;;;;;;20.65;10.45;;;;;;;16.50;81.88;100770.77;1780477;80;21642;-59
2021/06/16 01:46:26;;;;;;;18.45;8.80;;;;;;;16.51;82.42;100771.65;1780514;80;21572;-59
2021/06/16 01:48:57;;;;;;;21.48;9.65;;;;;;;16.51;82.36;100775.16;1780593;80;21062;-59
2021/06/16 01:51:27;;;;;;;20.62;9.48;;;;;;;16.52;82.33;100776.84;1780534;80;21529;-59
2021/06/16 01:53:57;;;;;;;22.40;10.43;;;;;;;16.51;82.39;100760.53;1780558;80;21065;-60
2021/06/16 01:56:27;;;;;;;18.82;9.60;;;;;;;16.49;82.41;100766.42;1780553;79;21058;-59
2021/06/16 01:58:57;;;;;;;24.37;10.00;;;;;;;16.46;82.40;100755.98;1780526;79;21615;-58
2021/06/16 02:01:26;;;;;;;18.48;10.20;;;;;;;16.44;82.45;100751.72;1780473;80;21512;-59
2021/06/16 02:03:55;;;;;;;18.55;9.70;;;;;;;16.41;82.57;100770.02;1780669;79;21077;-59
2021/06/16 02:06:26;;;;;;;18.60;8.85;;;;;;;16.38;82.64;100778.21;1780449;80;21147;-60
2021/06/16 02:08:56;;;;;;;21.73;9.63;;;;;;;16.37;82.65;100775.16;1780458;80;21038;-60
2021/06/16 02:11:26;;;;;;;21.87;10.55;;;;;;;16.36;82.73;100780.95;1780516;80;21125;-59
2021/06/16 02:13:57;;;;;;;22.42;10.28;;;;;;;16.37;82.95;100797.75;1780625;80;21085;-59
2021/06/16 02:16:44;;;;;;;19.15;9.63;;;;;;;16.40;83.09;100797.08;1780503;80;21473;-59
2021/06/16 02:19:24;;;;;;;21.10;10.30;;;;;;;16.45;83.21;100804.78;1778534;80;21702;-59
2021/06/16 02:21:56;;;;;;;14.45;8.38;;;;;;;16.51;83.49;100814.17;1780548;80;21074;-59
2021/06/16 02:24:26;;;;;;;16.23;7.58;;;;;;;16.52;83.43;100816.70;1780528;80;21171;-59
2021/06/16 02:26:55;;;;;;;23.98;9.68;;;;;;;16.56;83.41;100812.93;1780500;80;21103;-60
2021/06/16 02:29:26;;;;;;;16.65;8.15;;;;;;;16.59;83.75;100808.73;1780421;80;21062;-60
2021/06/16 02:31:54;;;;;;;13.95;6.95;;;;;;;16.62;83.61;100805.50;1780446;80;21058;-59
2021/06/16 02:34:25;;;;;;;16.30;7.17;;;;;;;16.64;83.50;100798.30;1780525;80;21062;-59
2021/06/16 02:36:56;;;;;;;12.63;6.53;;;;;;;16.67;83.32;100798.09;1780601;80;21061;-59
2021/06/16 02:39:40;;;;;;;13.40;6.95;;;;;;;16.68;83.23;100798.00;1780560;80;21066;-59
2021/06/16 02:42:10;;;;;;;14.00;6.05;;;;;;;16.69;83.15;100804.16;1779991;80;21553;-59
2021/06/16 02:44:42;;;;;;;9.48;5.30;;;;;;;16.69;83.07;100809.48;1780502;80;21123;-60
2021/06/16 02:47:12;;;;;;;10.75;5.45;;;;;;;16.71;83.04;100808.90;1780590;80;21057;-60
2021/06/16 02:49:43;;;;;;;11.22;5.37;;;;;;;16.72;82.97;100809.29;1780559;80;21089;-59
2021/06/16 02:52:15;;;;;;;10.28;5.60;;;;;;;16.74;82.90;100808.72;1779075;80;21203;-61
2021/06/16 02:54:46;;;;;;;14.83;5.72;;;;;;;16.76;82.83;100818.29;1780457;79;21245;-60
2021/06/16 02:57:20;;;;;;;12.58;6.33;;;;;;;16.79;82.65;100809.28;1780601;80;21049;-59
2021/06/16 02:59:50;;;;;;;14.18;6.70;;;;;;;16.83;82.49;100816.63;1780510;80;21132;-60
2021/06/16 03:02:24;;;;;;;11.10;6.08;;;;;;;16.86;82.40;100821.27;1780443;80;21441;-59
2021/06/16 03:04:54;;;;;;;12.30;6.95;;;;;;;16.90;82.34;100821.44;1780386;80;21129;-59
2021/06/16 03:07:24;;;;;;;11.73;6.87;;;;;;;16.96;82.19;100819.70;1780455;80;21635;-59
2021/06/16 03:09:54;;;;;;;12.03;7.67;;;;;;;17.01;82.12;100811.93;1780493;80;21674;-60
2021/06/16 03:12:24;;;;;;;12.58;7.95;;;;;;;17.05;81.99;100807.63;1780518;80;21121;-59
2021/06/16 03:14:54;;;;;;;20.80;8.05;;;;;;;17.09;81.89;100810.94;1780600;80;21155;-59
2021/06/16 03:17:23;;;;;;;18.32;8.70;;;;;;;17.09;81.96;100814.44;1780449;80;21552;-59
2021/06/16 03:19:52;;;;;;;22.40;9.90;;;;;;;17.11;81.99;100821.00;1780427;80;21464;-59
2021/06/16 03:22:22;;;;;;;15.08;8.78;;;;;;;17.13;81.98;100815.98;1780413;79;21156;-59
2021/06/16 03:24:54;;;;;;;16.67;8.70;;;;;;;17.16;82.00;100812.25;1780398;79;21109;-60
2021/06/16 03:27:25;;;;;;;14.60;7.65;;;;;;;17.18;81.97;100803.69;1780555;80;21113;-59
2021/06/16 03:29:55;;;;;;;15.90;8.90;;;;;;;17.19;82.08;100804.08;1780339;79;21098;-59
2021/06/16 03:32:25;;;;;;;14.60;7.97;;;;;;;17.20;82.09;100808.42;1780418;80;21505;-59
2021/06/16 03:34:54;;;;;;;17.20;8.68;;;;;;;17.20;82.10;100805.77;1780472;79;21106;-59
2021/06/16 03:37:24;;;;;;;17.02;8.65;;;;;;;17.20;82.11;100804.44;1780430;80;21580;-59
2021/06/16 03:39:54;;;;;;;13.58;7.83;;;;;;;17.22;82.13;100809.17;1780474;80;21137;-59
2021/06/16 03:42:24;;;;;;;15.65;7.60;;;;;;;17.24;82.13;100803.75;1780355;80;21082;-60
2021/06/16 03:44:56;;;;;;;12.45;6.80;;;;;;;17.24;82.23;100810.41;1780410;80;21117;-59
2021/06/16 03:47:26;;;;;;;12.28;7.47;;;;;;;17.19;82.37;100804.08;1780526;80;21133;-59
2021/06/16 03:49:57;;;;;;;14.33;7.70;;;;;;;17.16;82.52;100805.59;1780462;80;21128;-59
2021/06/16 03:52:27;;;;;;;16.82;9.08;;;;;;;17.16;82.46;100800.28;1780422;80;21590;-59
2021/06/16 03:54:56;;;;;;;18.05;9.33;;;;;;;17.19;82.39;100800.09;1780461;80;21094;-59
2021/06/16 03:57:26;;;;;;;15.75;8.60;;;;;;;17.22;82.31;100802.52;1780378;80;21074;-58
2021/06/16 03:59:55;;;;;;;16.75;8.30;;;;;;;17.23;82.30;100798.08;1780161;80;21177;-58
2021/06/16 04:02:24;;;;;;;18.67;9.43;;;;;;;17.23;82.17;100812.23;1780333;80;21556;-58
2021/06/16 04:04:53;;;;;;;13.88;8.98;;;;;;;17.23;82.16;100812.23;1780417;80;21137;-58
2021/06/16 04:07:24;;;;;;;15.88;8.00;;;;;;;17.25;82.17;100816.13;1780365;80;21065;-58
2021/06/16 04:09:55;;;;;;;9.88;6.53;;;;;;;17.24;82.22;100811.73;1780548;80;21136;-58
2021/06/16 04:12:25;;;;;;;14.70;7.05;;;;;;;17.26;82.09;100821.80;1780447;80;21037;-58
2021/06/16 04:14:54;;;;;;;8.05;5.90;;;;;;;17.23;81.98;100822.87;1780537;80;21050;-58
2021/06/16 04:17:24;;;;;;;11.08;5.75;;;;;;;17.22;81.95;100826.47;1780538;80;21126;-58
2021/06/16 04:19:55;;;;;;;6.75;4.78;;;;;;;17.20;82.00;100828.38;1780355;80;21655;-58
2021/06/16 04:22:24;;;;;;;9.25;5.85;;;;;;;17.17;82.05;100825.45;1780254;80;21613;-58
2021/06/16 04:24:53;;;;;;;11.20;5.28;;;;;;;17.15;82.15;100824.70;1780396;80;21109;-58
2021/06/16 04:27:22;;;;;;;10.98;6.10;;;;;;;17.17;82.18;100824.58;1780398;80;21579;-58
2021/06/16 04:29:50;;;;;;;16.25;6.35;;;;;;;17.20;82.16;100825.72;1780536;80;21140;-58
2021/06/16 04:32:19;;;;;;;14.30;7.25;;;;;;;17.23;82.24;100820.20;1780376;80;21054;-60
2021/06/16 04:34:48;;;;;;;13.15;8.45;;;;;;;17.33;82.08;100800.00;1780549;80;21128;-58
2021/06/16 04:37:16;;;;;;;10.82;7.12;;;;;;;17.58;81.80;100802.37;1780402;80;21555;-58
2021/06/16 04:39:46;;;;;;;9.75;6.40;;;;;;;17.90;81.39;100802.01;1780414;80;21086;-58
2021/06/16 04:42:14;;;;;;;10.03;5.15;;;;;;;18.17;81.08;100815.70;1780513;80;21057;-58
2021/06/16 04:44:43;;;;;;;11.20;5.67;;;;;;;18.36;80.55;100823.28;1780492;80;21595;-58
2021/06/16 04:47:12;;;;;;;9.08;6.12;;;;;;;18.54;79.88;100827.80;1780466;80;21061;-58
2021/06/16 04:49:42;;;;;;;13.00;6.30;;;;;;;18.68;79.45;100840.97;1780606;80;21132;-59
2021/06/16 04:52:11;;;;;;;8.88;4.95;;;;;;;18.85;79.15;100856.66;1780528;80;21513;-59
2021/06/16 04:54:40;;;;;;;11.80;5.60;;;;;;;19.03;78.70;100856.28;1780499;80;21152;-58
2021/06/16 04:57:09;;;;;;;10.43;5.75;;;;;;;19.20;78.29;100841.23;1780566;80;21496;-58
2021/06/16 04:59:38;;;;;;;7.70;5.50;;;;;;;19.47;78.03;100839.64;1780465;80;21086;-59
2021/06/16 05:02:06;;;;;;;14.03;7.92;;;;;;;19.79;77.79;100834.20;1780519;80;21541;-58
2021/06/16 05:04:35;;;;;;;8.53;6.50;;;;;;;20.00;77.10;100832.56;1780587;80;21160;-59
2021/06/16 05:07:04;;;;;;;11.22;6.10;;;;;;;20.22;76.84;100828.23;1780513;80;21195;-58
2021/06/16 05:09:33;;;;;;;11.90;5.62;;;;;;;20.50;76.62;100834.91;1780648;80;21066;-58
2021/06/16 05:12:02;;;;;;;8.25;4.45;;;;;;;20.66;76.02;100842.61;1780636;80;21081;-59
2021/06/16 05:14:30;;;;;;;24.37;13.22;;;;;;;20.75;75.41;100832.51;1780526;80;21014;-58
2021/06/16 05:16:59;;;;;;;11.50;7.37;;;;;;;20.77;74.90;100821.19;1780538;80;21046;-58
2021/06/16 05:19:28;;;;;;;14.43;8.10;;;;;;;20.68;74.55;100828.62;1780476;80;21501;-59
2021/06/16 05:21:59;;;;;;;9.05;5.65;;;;;;;20.56;74.20;100829.06;1780507;80;21136;-58
2021/06/16 05:24:28;;;;;;;6.12;3.20;;;;;;;20.47;74.13;100834.30;1779774;80;21177;-59
2021/06/16 05:26:57;;;;;;;13.40;7.40;;;;;;;20.43;74.24;100829.19;1804261;79;21662;-58
2021/06/16 05:29:26;;;;;;;9.18;3.62;;;;;;;20.48;74.24;100821.31;1808965;79;21154;-58
2021/06/16 05:31:54;;;;;;;6.45;2.98;;;;;;;20.58;74.14;100823.59;1808986;79;21562;-57
2021/06/16 05:34:24;;;;;;;8.90;4.35;;;;;;;20.62;73.73;100830.46;1808988;79;21088;-58
2021/06/16 05:36:53;;;;;;;12.58;7.08;;;;;;;20.64;73.51;100831.19;1809018;79;21096;-58
2021/06/16 05:39:22;;;;;;;4.58;2.12;;;;;;;20.68;73.31;100837.14;1808958;79;21158;-58
2021/06/16 05:41:51;;;;;;;12.68;4.72;;;;;;;20.70;73.17;100828.01;1809203;79;21183;-58
2021/06/16 05:44:20;;;;;;;10.70;3.25;;;;;;;20.75;73.05;100828.50;1808941;79;21452;-58
2021/06/16 05:46:49;;;;;;;14.78;8.75;;;;;;;20.78;73.13;100832.23;1809005;79;21553;-58
2021/06/16 05:49:17;;;;;;;5.58;2.12;;;;;;;20.88;73.17;100828.82;1808997;79;21131;-58
2021/06/16 05:51:46;;;;;;;5.35;2.25;;;;;;;20.97;73.02;100830.28;1808961;79;21056;-58
2021/06/16 05:54:15;;;;;;;4.55;2.27;;;;;;;21.07;72.87;100824.17;1809114;79;21132;-58
2021/06/16 05:56:44;;;;;;;4.50;1.85;;;;;;;21.19;72.71;100817.33;1809057;79;21060;-58
2021/06/16 05:59:13;;;;;;;2.80;1.55;;;;;;;21.36;72.68;100823.11;1809109;79;21171;-59
2021/06/16 06:01:42;;;;;;;7.20;2.00;;;;;;;21.53;72.24;100829.27;1809090;78;21065;-58
2021/06/16 06:04:10;;;;;;;8.75;1.70;;;;;;;21.60;71.83;100829.61;1808852;79;21535;-58
2021/06/16 06:06:40;;;;;;;8.00;3.08;;;;;;;21.70;71.20;100837.71;1808993;79;21061;-58
2021/06/16 06:09:10;;;;;;;6.35;1.50;;;;;;;21.81;70.83;100830.11;1808978;79;21056;-58
2021/06/16 06:11:39;;;;;;;4.65;1.67;;;;;;;21.99;70.31;100828.53;1808940;79;21582;-58
2021/06/16 06:14:08;;;;;;;3.60;1.35;;;;;;;22.41;70.36;100814.22;1808981;79;21155;-58
2021/06/16 06:16:37;;;;;;;3.80;1.45;;;;;;;22.93;69.61;100806.91;1808927;79;21459;-59
2021/06/16 06:19:05;;;;;;;10.32;2.20;;;;;;;23.07;68.56;100807.89;1808948;79;21159;-59
2021/06/16 06:21:34;;;;;;;6.95;2.33;;;;;;;23.13;67.81;100814.54;1809102;79;21212;-58
2021/06/16 06:24:04;;;;;;;10.75;1.67;;;;;;;23.14;67.61;100813.53;1808958;79;21080;-58
2021/06/16 06:26:35;;;;;;;5.83;1.40;;;;;;;23.08;67.32;100806.88;1808994;79;21188;-58
2021/06/16 06:29:04;;;;;;;4.12;1.20;;;;;;;23.01;66.90;100804.87;1809027;79;21060;-59
2021/06/16 06:31:33;;;;;;;6.78;1.90;;;;;;;22.78;66.06;100801.56;1808909;78;21052;-58
2021/06/16 06:34:02;;;;;;;5.53;2.00;;;;;;;22.63;66.24;100791.23;1808949;79;21088;-58
2021/06/16 06:36:31;;;;;;;5.47;1.50;;;;;;;22.66;66.32;100793.63;1808981;79;21100;-58
2021/06/16 06:39:00;;;;;;;5.10;1.77;;;;;;;22.78;66.05;100794.38;1809180;78;21060;-58
2021/06/16 06:41:29;;;;;;;2.58;1.37;;;;;;;22.84;65.83;100792.48;1809070;79;21088;-59
2021/06/16 06:43:57;;;;;;;7.25;1.60;;;;;;;22.72;65.35;100798.47;1808894;79;21937;-59
2021/06/16 06:46:26;;;;;;;5.85;1.90;;;;;;;22.64;65.39;100796.94;1808953;79;21068;-58
2021/06/16 06:48:54;;;;;;;5.37;1.70;;;;;;;22.56;65.74;100798.13;1809025;79;21096;-59
2021/06/16 06:51:23;;;;;;;7.87;2.20;;;;;;;22.45;65.83;100796.90;1809058;79;21057;-59
2021/06/16 06:53:53;;;;;;;4.83;1.70;;;;;;;22.41;66.36;100800.34;1809002;79;21029;-59
2021/06/16 06:56:22;;;;;;;4.78;1.60;;;;;;;22.43;66.40;100794.34;1808827;79;21131;-60
2021/06/16 06:58:50;;;;;;;4.00;1.65;;;;;;;22.46;66.21;100790.03;1808998;79;21498;-59
2021/06/16 07:01:19;;;;;;;4.03;1.32;;;;;;;22.44;65.89;100788.48;1808980;79;21143;-58
2021/06/16 07:03:47;;;;;;;7.05;1.85;;;;;;;22.24;65.75;100791.53;1809028;79;21068;-58
2021/06/16 07:06:16;;;;;;;7.50;2.27;;;;;;;22.11;65.93;100790.41;1808968;79;21134;-59
2021/06/16 07:08:46;;;;;;;6.83;2.37;;;;;;;22.12;65.94;100789.45;1808927;79;21085;-59
2021/06/16 07:11:15;;;;;;;9.95;1.87;;;;;;;22.16;66.02;100785.51;1809089;79;21052;-59
2021/06/16 07:13:44;;;;;;;4.95;1.75;;;;;;;22.12;65.99;100778.72;1808989;79;21080;-59
2021/06/16 07:16:12;;;;;;;5.20;2.25;;;;;;;22.31;66.04;100778.82;1809070;79;21134;-58
2021/06/16 07:18:41;;;;;;;4.62;1.55;;;;;;;22.57;66.05;100776.16;1809166;79;21171;-57
2021/06/16 07:21:11;;;;;;;5.25;1.72;;;;;;;22.66;65.91;100780.70;1809065;79;21025;-58
2021/06/16 07:23:40;;;;;;;5.72;1.85;;;;;;;22.52;65.44;100779.23;1808942;79;21049;-58
2021/06/16 07:26:09;;;;;;;4.37;1.92;;;;;;;22.44;65.64;100773.72;1808952;79;21068;-57
2021/06/16 07:28:38;;;;;;;6.00;1.80;;;;;;;22.41;65.71;100778.01;1808911;79;21170;-57
2021/06/16 07:31:07;;;;;;;1.80;1.10;;;;;;;22.33;65.75;100771.48;1808944;79;21052;-57
2021/06/16 07:33:36;;;;;;;3.20;1.40;;;;;;;22.24;65.68;100766.90;1808976;79;21100;-57
2021/06/16 07:36:06;;;;;;;3.33;1.37;;;;;;;22.42;65.92;100771.67;1808855;79;21116;-57
2021/06/16 07:38:34;;;;;;;4.80;1.92;;;;;;;22.59;65.59;100772.34;1809061;79;21064;-57
2021/06/16 07:41:03;;;;;;;3.12;1.55;;;;;;;22.62;65.77;100769.40;1808963;79;21496;-57
2021/06/16 07:43:31;;;;;;;5.90;1.82;;;;;;;22.60;65.64;100767.85;1809037;79;21088;-58
2021/06/16 07:46:00;;;;;;;4.85;1.70;;;;;;;22.46;65.63;100770.41;1808946;79;21135;-58
2021/06/16 07:48:29;;;;;;;4.87;1.90;;;;;;;22.31;65.97;100766.75;1809061;79;21180;-59
2021/06/16 07:50:58;;;;;;;5.10;1.75;;;;;;;22.23;66.12;100770.58;1809160;79;21093;-58
2021/06/16 07:53:26;;;;;;;6.15;1.62;;;;;;;22.12;66.29;100771.52;1808976;79;21065;-57
2021/06/16 07:55:55;;;;;;;2.95;1.77;;;;;;;21.96;66.58;100767.97;1809004;79;21111;-57
2021/06/16 07:58:25;;;;;;;4.22;1.98;;;;;;;21.85;66.71;100769.39;1808978;79;21069;-58
2021/06/16 08:00:54;;;;;;;6.92;2.10;;;;;;;21.77;66.84;100774.58;1808992;79;21123;-58
2021/06/16 08:03:23;;;;;;;6.25;1.75;;;;;;;21.75;67.05;100765.83;1808891;79;21732;-57
2021/06/16 08:05:52;;;;;;;4.62;1.50;;;;;;;21.72;67.19;100769.59;1808929;79;21088;-57
2021/06/16 08:08:21;;;;;;;3.02;1.50;;;;;;;21.78;67.21;100760.18;1808907;79;21491;-57
2021/06/16 08:10:49;;;;;;;5.58;1.70;;;;;;;22.04;67.14;100761.09;1809043;79;21068;-57
2021/06/16 08:13:19;;;;;;;7.85;2.00;;;;;;;22.34;66.96;100756.27;1808913;79;21081;-58
2021/06/16 08:15:48;;;;;;;8.15;2.05;;;;;;;22.58;66.74;100758.59;1808985;79;21060;-57
2021/06/16 08:18:17;;;;;;;3.37;1.37;;;;;;;22.83;66.38;100761.73;1808918;79;21090;-58
2021/06/16 08:20:46;;;;;;;5.30;1.72;;;;;;;22.86;65.84;100767.67;1808900;79;21555;-58
2021/06/16 08:23:16;;;;;;;8.13;1.82;;;;;;;22.84;65.31;100767.48;1809053;79;21181;-58
2021/06/16 08:25:45;;;;;;;5.50;2.52;;;;;;;22.81;65.44;100761.03;1809073;79;21580;-58
2021/06/16 08:28:14;;;;;;;7.92;2.67;;;;;;;22.73;65.41;100767.94;1808831;79;21207;-58
2021/06/16 08:30:43;;;;;;;4.00;1.98;;;;;;;22.69;65.32;100765.18;1809083;79;21551;-57
2021/06/16 08:33:12;;;;;;;6.53;2.12;;;;;;;22.68;65.37;100764.81;1808881;79;21467;-58
2021/06/16 08:35:41;;;;;;;4.37;2.10;;;;;;;22.73;65.46;100766.59;1808985;79;21033;-58
2021/06/16 08:38:10;;;;;;;5.65;2.60;;;;;;;22.69;65.55;100765.18;1808890;79;21439;-58
2021/06/16 08:40:38;;;;;;;4.65;1.85;;;;;;;22.71;65.66;100767.23;1808864;78;21076;-58
2021/06/16 08:43:07;;;;;;;3.05;1.77;;;;;;;22.74;65.56;100754.89;1808994;79;21130;-57
2021/06/16 08:45:40;;;;;;;8.58;2.40;;;;;;;22.77;65.48;100757.77;1808884;79;21159;-57
2021/06/16 08:48:11;;;;;;;6.08;2.62;;;;;;;22.83;65.43;100756.37;1808911;79;21155;-57
2021/06/16 08:50:40;;;;;;;5.35;2.40;;;;;;;22.86;65.70;100752.08;1808899;79;21523;-58
2021/06/16 08:53:08;;;;;;;6.00;2.12;;;;;;;22.90;65.78;100752.14;1808822;79;21088;-59
2021/06/16 08:55:37;;;;;;;5.40;2.27;;;;;;;22.85;65.90;100746.34;1808962;79;21146;-58
2021/06/16 08:58:06;;;;;;;11.28;3.20;;;;;;;22.74;65.85;100749.52;1808888;79;21598;-58
2021/06/16 09:00:34;;;;;;;14.15;3.15;;;;;;;22.71;66.11;100741.73;1808897;78;21175;-58
2021/06/16 09:03:04;;;;;;;13.88;3.30;;;;;;;22.84;66.33;100746.84;1808887;79;21092;-58
2021/06/16 09:05:41;;;;;;;9.85;2.92;;;;;;;22.97;66.19;100747.91;1808824;78;21052;-58
2021/06/16 09:08:22;;;;;;;8.68;3.17;;;;;;;23.11;66.10;100748.00;1805849;79;21131;-58
2021/06/16 09:10:57;;;;;;;13.20;2.65;;;;;;;23.32;66.05;100750.06;1808910;79;21069;-58
2021/06/16 09:13:33;;;;;;;7.35;3.08;;;;;;;23.37;65.69;100741.59;1808868;79;21190;-58
2021/06/16 09:16:04;;;;;;;4.67;2.67;;;;;;;23.39;65.62;100744.98;1808817;79;21551;-60
2021/06/16 09:18:44;;;;;;;6.92;2.15;;;;;;;23.43;65.52;100743.69;1808382;79;21088;-59
2021/06/16 09:21:13;;;;;;;3.30;2.10;;;;;;;23.45;65.35;100740.86;1805024;79;21080;-59
2021/06/16 09:23:43;;;;;;;7.40;1.90;;;;;;;23.45;65.64;100737.67;1808865;78;21497;-58
2021/06/16 09:26:14;;;;;;;8.03;1.72;;;;;;;23.45;65.56;100737.67;1808932;79;21058;-58
2021/06/16 09:28:50;;;;;;;6.15;1.30;;;;;;;23.46;65.47;100734.01;1798357;79;21090;-60
2021/06/16 09:31:21;;;;;;;6.28;1.37;;;;;;;23.40;65.18;100735.06;1780658;80;21074;-59
2021/06/16 09:33:51;;;;;;;4.03;1.57;;;;;;;23.27;64.95;100736.20;1780499;80;21088;-59
2021/06/16 09:36:23;;;;;;;5.85;1.47;;;;;;;23.27;64.65;100743.42;1780632;79;21492;-58
2021/06/16 09:38:52;;;;;;;3.72;1.20;;;;;;;23.27;64.59;100736.20;1780760;80;21082;-59
2021/06/16 09:41:23;;;;;;;5.70;1.25;;;;;;;23.27;64.44;100735.36;1780598;80;21056;-58
2021/06/16 09:43:57;;;;;;;8.13;2.00;;;;;;;23.17;63.99;100731.84;1780522;80;21469;-58
2021/06/16 09:46:25;;;;;;;5.15;1.27;;;;;;;23.09;64.06;100736.09;1780513;80;21588;-58
2021/06/16 09:48:54;;;;;;;4.58;1.50;;;;;;;22.97;63.65;100729.12;1780489;80;21085;-58
2021/06/16 09:51:25;;;;;;;3.92;1.20;;;;;;;22.95;63.45;100723.05;1780465;80;21121;-58
2021/06/16 09:53:58;;;;;;;1.92;1.10;;;;;;;23.00;62.39;100723.48;1780299;80;21089;-58
2021/06/16 09:56:33;;;;;;;5.42;1.45;;;;;;;23.02;61.57;100723.30;1780734;80;21105;-58
2021/06/16 09:59:00;;;;;;;6.30;0.93;;;;;;;23.12;61.43;100720.17;1779598;80;21073;-58
2021/06/16 10:01:46;;;;;;;1.75;0.90;;;;;;;23.21;60.97;100723.35;1780588;80;21065;-58
2021/06/16 10:04:34;;;;;;;2.55;0.90;;;;;;;23.25;60.70;100715.86;1780469;80;21218;-57
2021/06/16 10:07:14;;;;;;;2.92;0.90;;;;;;;23.24;60.33;100716.36;1780173;80;21639;-57
2021/06/16 10:09:55;;;;;;;4.47;0.98;;;;;;;23.24;59.62;100723.55;1780589;80;21473;-57
2021/06/16 10:12:26;;;;;;;6.12;1.02;;;;;;;23.17;59.67;100721.11;1780634;80;21033;-58
2021/06/16 10:14:56;;;;;;;3.25;1.17;;;;;;;23.18;59.79;100729.00;1780511;80;21139;-58
2021/06/16 10:17:25;;;;;;;6.03;1.10;;;;;;;23.22;59.58;100725.06;1780505;80;21069;-57
2021/06/16 10:19:54;;;;;;;5.70;0.93;;;;;;;23.27;59.68;100724.11;1780470;80;21155;-58
2021/06/16 10:22:24;;;;;;;2.30;0.90;;;;;;;23.31;58.92;100717.95;1780495;80;21155;-58
2021/06/16 10:24:54;;;;;;;3.05;0.65;;;;;;;23.29;57.96;100728.00;1780481;80;21616;-58
2021/06/16 10:27:38;;;;;;;2.77;0.82;;;;;;;23.28;58.10;100724.98;1780500;80;21069;-57
2021/06/16 10:30:13;;;;;;;4.80;0.70;;;;;;;23.18;57.89;100731.68;1780461;80;21097;-58
2021/06/16 10:32:45;;;;;;;6.17;0.82;;;;;;;23.06;58.19;100730.15;1780452;80;21155;-58
2021/06/16 10:35:16;;;;;;;3.47;1.00;;;;;;;23.00;58.41;100727.50;1780286;80;21098;-58
2021/06/16 10:37:46;;;;;;;5.05;1.00;;;;;;;22.87;58.58;100722.88;1777669;80;21065;-58
2021/06/16 10:40:21;;;;;;;3.05;0.72;;;;;;;22.78;59.02;100727.27;1780509;80;21185;-58
2021/06/16 10:43:06;;;;;;;3.08;0.75;;;;;;;22.73;59.20;100725.50;1780474;80;21220;-58
2021/06/16 10:45:37;;;;;;;6.17;0.80;;;;;;;22.66;59.03;100710.94;1780486;80;21094;-58
2021/06/16 10:48:08;;;;;;;3.37;1.00;;;;;;;22.60;59.30;100716.36;1780416;80;21171;-58
2021/06/16 10:50:53;;;;;;;3.33;0.70;;;;;;;22.47;59.62;100707.73;1780577;80;21069;-58
2021/06/16 10:53:27;;;;;;;2.10;1.05;;;;;;;22.32;60.27;100709.45;1780605;80;21081;-58
2021/06/16 10:56:04;;;;;;;2.87;0.90;;;;;;;22.12;60.94;100703.64;1780485;80;21097;-58
2021/06/16 10:58:35;;;;;;;4.62;1.80;;;;;;;22.01;61.58;100706.42;1780438;80;21026;-58
2021/06/16 11:01:16;;;;;;;3.08;1.60;;;;;;;21.94;62.20;100700.74;1780273;79;21528;-58
2021/06/16 11:03:56;;;;;;;5.40;2.27;;;;;;;21.84;63.26;100691.80;1780458;80;21085;-58
2021/06/16 11:06:37;;;;;;;5.05;3.37;;;;;;;21.77;64.21;100690.16;1780442;79;21066;-58
2021/06/16 11:09:09;;;;;;;4.45;3.30;;;;;;;21.77;64.64;100679.44;1780486;80;21085;-58
2021/06/16 11:12:00;;;;;;;4.58;2.75;;;;;;;21.85;65.14;100680.94;1780500;80;21061;-58
2021/06/16 11:14:39;;;;;;;3.72;2.00;;;;;;;21.90;64.89;100675.20;1779950;80;21070;-59
2021/06/16 11:17:10;;;;;;;3.02;1.40;;;;;;;21.89;65.10;100678.38;1780610;80;21124;-59
2021/06/16 11:19:41;;;;;;;3.72;1.60;;;;;;;21.84;65.17;100676.59;1780432;80;21615;-58
2021/06/16 11:22:16;;;;;;;2.17;1.30;;;;;;;21.78;65.01;100675.30;1780478;80;21065;-59
2021/06/16 11:25:05;;;;;;;2.37;1.20;;;;;;;21.76;65.74;100679.94;1780463;80;21080;-58
2021/06/16 11:27:55;;;;;;;4.30;1.57;;;;;;;21.68;66.04;100677.06;1780373;80;21561;-58
2021/06/16 11:30:38;;;;;;;4.17;1.72;;;;;;;21.61;66.38;100679.08;1780450;80;21105;-58
2021/06/16 11:33:23;;;;;;;3.58;1.37;;;;;;;21.51;66.72;100666.48;1780462;80;21159;-59
2021/06/16 11:36:02;;;;;;;3.47;1.70;;;;;;;21.44;66.88;100664.44;1780383;80;21086;-57
2021/06/16 11:38:36;;;;;;;2.83;1.37;;;;;;;21.43;67.11;100667.58;1779346;79;21469;-59